Maratha — SWJF — position and weather

sailwx.info

Track history (hours):
 
Tides and Currents Weather Stations Pressure Air Temp Water Temp Dewpoint Dewpoint Depression Visibility Wind Speed Wind Dir Waves Ship Positions

Maratha

Last reported at 2018-Feb-25 04:41 UTC. Time now 2018-Feb-25 08:11 UTC.
Position N 35°46' E 030°25'.

Length 244 m; draft 8.5 m.

Type: Ship. MMSI: 240042000.

Date/timePositionNaut miles runAvg speedWind from/ knotsBaromVisibWave heightAir tempDewpointWater temp
2018-Feb-25 04:41N 35°46' E 030°25'210.1
2018-Feb-25 04:26N 35°46' E 030°22'  
2018-Feb-18 22:43N 37°21' E 016°16'13 2.3
2018-Feb-18 16:49N 37°19' E 016°00'2 5.7
2018-Feb-18 16:24N 37°18' E 015°57'2 2.0
2018-Feb-18 15:16N 37°17' E 015°56'2 2.4
2018-Feb-18 14:19N 37°15' E 015°53'48 9.8
2018-Feb-18 09:25N 38°00' E 015°32'410.8
2018-Feb-18 09:01N 38°05' E 015°33'611.4
2018-Feb-18 08:31N 38°10' E 015°35'611.7
2018-Feb-18 08:00N 38°15' E 015°39'5 9.4
2018-Feb-18 07:31N 38°19' E 015°36'612.7
2018-Feb-18 07:00N 38°19' E 015°28'612.5
2018-Feb-18 06:31N 38°16' E 015°21'5 9.3
2018-Feb-18 06:00N 38°13' E 015°16'0 1.0
2018-Feb-18 05:31N 38°13' E 015°16'0 0.0
2018-Feb-18 05:01N 38°13' E 015°16'0 0.0
2018-Feb-18 04:30N 38°13' E 015°16'0 0.0
2018-Feb-18 04:00N 38°13' E 015°16'0 0.0
2018-Feb-18 03:30N 38°13' E 015°16'0 0.0
2018-Feb-18 03:00N 38°13' E 015°16'0 0.0
2018-Feb-18 02:30N 38°13' E 015°16'0 0.0
2018-Feb-18 02:00N 38°13' E 015°16'0 0.0
2018-Feb-18 01:30N 38°13' E 015°16'0 0.0
2018-Feb-18 01:00N 38°13' E 015°16'0 0.0
2018-Feb-18 00:30N 38°13' E 015°16'0 0.0
2018-Feb-18 00:00N 38°13' E 015°16'0 0.0
2018-Feb-17 23:30N 38°13' E 015°16'0 0.0
2018-Feb-17 23:00N 38°13' E 015°16'0 0.0
2018-Feb-17 22:30N 38°13' E 015°16'0 0.0
2018-Feb-17 22:00N 38°13' E 015°16'0 0.0
2018-Feb-17 21:30N 38°13' E 015°16'0 0.0
2018-Feb-17 21:00N 38°13' E 015°16'0 0.0
2018-Feb-17 20:30N 38°13' E 015°16'0 0.0
2018-Feb-17 20:00N 38°13' E 015°16'0 0.0
2018-Feb-17 19:30N 38°13' E 015°16'0 0.0
2018-Feb-17 19:00N 38°13' E 015°16'0 0.0
2018-Feb-17 18:30N 38°13' E 015°16'0 0.0
2018-Feb-17 18:00N 38°13' E 015°16'0 0.0
2018-Feb-17 17:30N 38°13' E 015°16'0 0.0
2018-Feb-17 17:00N 38°13' E 015°16'0 0.0
2018-Feb-17 16:30N 38°13' E 015°16'0 0.0
2018-Feb-17 16:00N 38°13' E 015°16'0 0.0
2018-Feb-17 15:30N 38°13' E 015°16'0 0.0
2018-Feb-17 15:00N 38°13' E 015°16'0 0.0
2018-Feb-17 14:30N 38°13' E 015°16'0 0.0
2018-Feb-17 14:00N 38°13' E 015°16'0 0.0
2018-Feb-17 13:30N 38°13' E 015°16'0 0.0
2018-Feb-17 13:00N 38°13' E 015°16'0 0.0
2018-Feb-17 12:30N 38°13' E 015°16'0 0.0
2018-Feb-17 12:00N 38°13' E 015°16'0 0.0
2018-Feb-17 11:30N 38°13' E 015°16'0 0.0
2018-Feb-17 11:00N 38°13' E 015°16'0 0.0
2018-Feb-17 10:30N 38°13' E 015°16'0 0.0
2018-Feb-17 10:00N 38°13' E 015°16'0 0.0
2018-Feb-17 09:30N 38°13' E 015°16'0 0.0
2018-Feb-17 09:00N 38°13' E 015°16'0 0.0
2018-Feb-17 08:30N 38°13' E 015°16'0 0.0
2018-Feb-17 08:00N 38°13' E 015°16'0 0.0
2018-Feb-17 07:30N 38°13' E 015°16'0 0.0
2018-Feb-17 07:00N 38°13' E 015°16'0 0.0
2018-Feb-17 06:30N 38°13' E 015°16'0 0.0
2018-Feb-17 06:00N 38°13' E 015°16'0 0.0
2018-Feb-17 05:30N 38°13' E 015°16'0 0.0
2018-Feb-17 05:00N 38°13' E 015°16'0 0.0
2018-Feb-17 04:30N 38°13' E 015°16'0 0.0
2018-Feb-17 04:00N 38°13' E 015°16'0 0.0
2018-Feb-17 03:30N 38°13' E 015°16'0 0.0
2018-Feb-17 03:00N 38°13' E 015°16'0 0.0
2018-Feb-17 02:30N 38°13' E 015°16'0 0.0
2018-Feb-17 02:00N 38°13' E 015°16'0 0.0
2018-Feb-17 01:24N 38°13' E 015°16'0 0.0
2018-Feb-17 01:00N 38°13' E 015°16'0 0.0
2018-Feb-17 00:30N 38°13' E 015°16'0 0.0
2018-Feb-17 00:00N 38°13' E 015°16'0 0.0
2018-Feb-16 23:30N 38°13' E 015°16'0 0.0
2018-Feb-16 23:00N 38°13' E 015°16'0 0.0
2018-Feb-16 22:30N 38°13' E 015°16'0 0.0
2018-Feb-16 22:00N 38°13' E 015°16'0 0.0
2018-Feb-16 21:30N 38°13' E 015°16'0 0.0
2018-Feb-16 21:00N 38°13' E 015°16'0 0.0
2018-Feb-16 20:30N 38°13' E 015°16'0 0.0
2018-Feb-16 20:00N 38°13' E 015°16'0 0.0
2018-Feb-16 19:30N 38°13' E 015°16'0 0.0
2018-Feb-16 19:00N 38°13' E 015°16'0 0.0
2018-Feb-16 18:30N 38°13' E 015°16'0 0.0
2018-Feb-16 18:00N 38°13' E 015°16'0 0.0
2018-Feb-16 17:30N 38°13' E 015°16'0 0.0
2018-Feb-16 17:00N 38°13' E 015°16'0 0.0
2018-Feb-16 16:24N 38°13' E 015°16'0 0.0
2018-Feb-16 16:00N 38°13' E 015°16'0 0.0
2018-Feb-16 15:30N 38°13' E 015°16'0 0.0
2018-Feb-16 15:00N 38°13' E 015°16'0 0.0
2018-Feb-16 14:30N 38°13' E 015°16'0 0.0
2018-Feb-16 14:00N 38°13' E 015°16'0 0.0
2018-Feb-16 13:30N 38°13' E 015°16'0 0.0
2018-Feb-16 13:00N 38°13' E 015°16'0 0.0
2018-Feb-16 12:30N 38°13' E 015°16'0 0.0
2018-Feb-16 12:00N 38°13' E 015°16'0 0.0
2018-Feb-16 11:30N 38°13' E 015°16'0 0.0
2018-Feb-16 11:00N 38°13' E 015°16'0 0.0
2018-Feb-16 10:30N 38°13' E 015°16'0 0.3
2018-Feb-16 10:00N 38°13' E 015°16'1 1.1
2018-Feb-16 09:30N 38°13' E 015°16'0 0.3
2018-Feb-16 09:00N 38°13' E 015°16'0 0.1
2018-Feb-16 08:30N 38°13' E 015°16'0 0.0
2018-Feb-16 08:00N 38°13' E 015°16'0 0.0
2018-Feb-16 07:30N 38°13' E 015°16'0 0.0
2018-Feb-16 07:00N 38°13' E 015°16'0 0.0
2018-Feb-16 06:24N 38°13' E 015°16'0 0.1
2018-Feb-16 06:00N 38°13' E 015°16'0 0.0
2018-Feb-16 05:30N 38°13' E 015°16'0 0.0
2018-Feb-16 04:54N 38°13' E 015°16'0 0.1
2018-Feb-16 04:30N 38°13' E 015°16'0 0.0
2018-Feb-16 04:00N 38°13' E 015°16'0 0.0
2018-Feb-16 03:30N 38°13' E 015°16'0 0.0
2018-Feb-16 03:00N 38°13' E 015°16'0 0.1
2018-Feb-16 02:30N 38°13' E 015°16'0 0.0
2018-Feb-16 02:00N 38°13' E 015°16'0 0.0
2018-Feb-16 01:30N 38°13' E 015°16'0 0.0
2018-Feb-16 01:00N 38°13' E 015°16'0 0.0
2018-Feb-16 00:30N 38°13' E 015°16'0 0.0
2018-Feb-16 00:00N 38°13' E 015°16'0 0.0
2018-Feb-15 23:30N 38°13' E 015°16'0 0.1
2018-Feb-15 23:00N 38°13' E 015°16'0 0.1
2018-Feb-15 22:30N 38°13' E 015°16'0 0.0
2018-Feb-15 22:00N 38°13' E 015°16'0 0.0
2018-Feb-15 21:30N 38°13' E 015°16'0 0.0
2018-Feb-15 21:00N 38°13' E 015°16'0 0.1
2018-Feb-15 20:30N 38°13' E 015°16'0 0.0
2018-Feb-15 20:00N 38°13' E 015°16'0 0.0
2018-Feb-15 19:30N 38°13' E 015°16'0 0.0
2018-Feb-15 19:00N 38°13' E 015°16'0 0.0
2018-Feb-15 18:30N 38°13' E 015°16'0 0.1
2018-Feb-15 18:00N 38°13' E 015°16'0 0.0
2018-Feb-15 17:30N 38°13' E 015°16'0 0.0
2018-Feb-15 17:00N 38°13' E 015°16'0 0.0
2018-Feb-15 16:30N 38°13' E 015°16'0 0.0
2018-Feb-15 16:00N 38°13' E 015°16'0 0.0
2018-Feb-15 15:30N 38°13' E 015°16'0 0.0
2018-Feb-15 15:00N 38°13' E 015°16'0 0.0
2018-Feb-15 14:30N 38°13' E 015°16'0 0.0
2018-Feb-15 14:00N 38°13' E 015°16'0 0.0
2018-Feb-15 13:30N 38°13' E 015°16'0 0.0
2018-Feb-15 13:00N 38°13' E 015°16'0 0.0
2018-Feb-15 12:30N 38°13' E 015°16'0 0.1
2018-Feb-15 12:00N 38°13' E 015°16'0 0.0
2018-Feb-15 11:30N 38°13' E 015°16'0 0.0
2018-Feb-15 11:00N 38°13' E 015°16'0 0.0
2018-Feb-15 10:30N 38°13' E 015°16'0 0.0
2018-Feb-15 10:00N 38°13' E 015°16'0 0.0
2018-Feb-15 09:30N 38°13' E 015°16'0 0.0
2018-Feb-15 09:00N 38°13' E 015°16'0 0.0
2018-Feb-15 08:30N 38°13' E 015°16'0 0.0
2018-Feb-15 08:00N 38°13' E 015°16'0 0.0
2018-Feb-15 07:30N 38°13' E 015°16'0 0.0
2018-Feb-15 07:00N 38°13' E 015°16'0 0.0
2018-Feb-15 06:24N 38°13' E 015°16'0 0.0
2018-Feb-15 06:00N 38°13' E 015°16'0 0.0
2018-Feb-15 05:30N 38°13' E 015°16'0 0.0
2018-Feb-15 05:00N 38°13' E 015°16'  
Track history (hours):
 
Tides and Currents Weather Stations Pressure Air Temp Water Temp Dewpoint Dewpoint Depression Visibility Wind Speed Wind Dir Waves Ship Positions

Maratha

Last reported at 2018-Feb-25 04:41 UTC. Time now 2018-Feb-25 08:11 UTC.
Position N 35°46' E 030°25'.

Length 244 m; draft 8.5 m.

Type: Ship. MMSI: 240042000.

Date/timePositionNaut miles runAvg speedWind from/ knotsBaromVisibWave heightAir tempDewpointWater temp
2018-Feb-25 04:41N 35°46' E 030°25'210.1
2018-Feb-25 04:26N 35°46' E 030°22'  
2018-Feb-18 22:43N 37°21' E 016°16'13 2.3
2018-Feb-18 16:49N 37°19' E 016°00'2 5.7
2018-Feb-18 16:24N 37°18' E 015°57'2 2.0
2018-Feb-18 15:16N 37°17' E 015°56'2 2.4
2018-Feb-18 14:19N 37°15' E 015°53'48 9.8
2018-Feb-18 09:25N 38°00' E 015°32'410.8
2018-Feb-18 09:01N 38°05' E 015°33'611.4
2018-Feb-18 08:31N 38°10' E 015°35'611.7
2018-Feb-18 08:00N 38°15' E 015°39'5 9.4
2018-Feb-18 07:31N 38°19' E 015°36'612.7
2018-Feb-18 07:00N 38°19' E 015°28'612.5
2018-Feb-18 06:31N 38°16' E 015°21'5 9.3
2018-Feb-18 06:00N 38°13' E 015°16'0 1.0
2018-Feb-18 05:31N 38°13' E 015°16'0 0.0
2018-Feb-18 05:01N 38°13' E 015°16'0 0.0
2018-Feb-18 04:30N 38°13' E 015°16'0 0.0
2018-Feb-18 04:00N 38°13' E 015°16'0 0.0
2018-Feb-18 03:30N 38°13' E 015°16'0 0.0
2018-Feb-18 03:00N 38°13' E 015°16'0 0.0
2018-Feb-18 02:30N 38°13' E 015°16'0 0.0
2018-Feb-18 02:00N 38°13' E 015°16'0 0.0
2018-Feb-18 01:30N 38°13' E 015°16'0 0.0
2018-Feb-18 01:00N 38°13' E 015°16'0 0.0
2018-Feb-18 00:30N 38°13' E 015°16'0 0.0
2018-Feb-18 00:00N 38°13' E 015°16'0 0.0
2018-Feb-17 23:30N 38°13' E 015°16'0 0.0
2018-Feb-17 23:00N 38°13' E 015°16'0 0.0
2018-Feb-17 22:30N 38°13' E 015°16'0 0.0
2018-Feb-17 22:00N 38°13' E 015°16'0 0.0
2018-Feb-17 21:30N 38°13' E 015°16'0 0.0
2018-Feb-17 21:00N 38°13' E 015°16'0 0.0
2018-Feb-17 20:30N 38°13' E 015°16'0 0.0
2018-Feb-17 20:00N 38°13' E 015°16'0 0.0
2018-Feb-17 19:30N 38°13' E 015°16'0 0.0
2018-Feb-17 19:00N 38°13' E 015°16'0 0.0
2018-Feb-17 18:30N 38°13' E 015°16'0 0.0
2018-Feb-17 18:00N 38°13' E 015°16'0 0.0
2018-Feb-17 17:30N 38°13' E 015°16'0 0.0
2018-Feb-17 17:00N 38°13' E 015°16'0 0.0
2018-Feb-17 16:30N 38°13' E 015°16'0 0.0
2018-Feb-17 16:00N 38°13' E 015°16'0 0.0
2018-Feb-17 15:30N 38°13' E 015°16'0 0.0
2018-Feb-17 15:00N 38°13' E 015°16'0 0.0
2018-Feb-17 14:30N 38°13' E 015°16'0 0.0
2018-Feb-17 14:00N 38°13' E 015°16'0 0.0
2018-Feb-17 13:30N 38°13' E 015°16'0 0.0
2018-Feb-17 13:00N 38°13' E 015°16'0 0.0
2018-Feb-17 12:30N 38°13' E 015°16'0 0.0
2018-Feb-17 12:00N 38°13' E 015°16'0 0.0
2018-Feb-17 11:30N 38°13' E 015°16'0 0.0
2018-Feb-17 11:00N 38°13' E 015°16'0 0.0
2018-Feb-17 10:30N 38°13' E 015°16'0 0.0
2018-Feb-17 10:00N 38°13' E 015°16'0 0.0
2018-Feb-17 09:30N 38°13' E 015°16'0 0.0
2018-Feb-17 09:00N 38°13' E 015°16'0 0.0
2018-Feb-17 08:30N 38°13' E 015°16'0 0.0
2018-Feb-17 08:00N 38°13' E 015°16'0 0.0
2018-Feb-17 07:30N 38°13' E 015°16'0 0.0
2018-Feb-17 07:00N 38°13' E 015°16'0 0.0
2018-Feb-17 06:30N 38°13' E 015°16'0 0.0
2018-Feb-17 06:00N 38°13' E 015°16'0 0.0
2018-Feb-17 05:30N 38°13' E 015°16'0 0.0
2018-Feb-17 05:00N 38°13' E 015°16'0 0.0
2018-Feb-17 04:30N 38°13' E 015°16'0 0.0
2018-Feb-17 04:00N 38°13' E 015°16'0 0.0
2018-Feb-17 03:30N 38°13' E 015°16'0 0.0
2018-Feb-17 03:00N 38°13' E 015°16'0 0.0
2018-Feb-17 02:30N 38°13' E 015°16'0 0.0
2018-Feb-17 02:00N 38°13' E 015°16'0 0.0
2018-Feb-17 01:24N 38°13' E 015°16'0 0.0
2018-Feb-17 01:00N 38°13' E 015°16'0 0.0
2018-Feb-17 00:30N 38°13' E 015°16'0 0.0
2018-Feb-17 00:00N 38°13' E 015°16'0 0.0
2018-Feb-16 23:30N 38°13' E 015°16'0 0.0
2018-Feb-16 23:00N 38°13' E 015°16'0 0.0
2018-Feb-16 22:30N 38°13' E 015°16'0 0.0
2018-Feb-16 22:00N 38°13' E 015°16'0 0.0
2018-Feb-16 21:30N 38°13' E 015°16'0 0.0
2018-Feb-16 21:00N 38°13' E 015°16'0 0.0
2018-Feb-16 20:30N 38°13' E 015°16'0 0.0
2018-Feb-16 20:00N 38°13' E 015°16'0 0.0
2018-Feb-16 19:30N 38°13' E 015°16'0 0.0
2018-Feb-16 19:00N 38°13' E 015°16'0 0.0
2018-Feb-16 18:30N 38°13' E 015°16'0 0.0
2018-Feb-16 18:00N 38°13' E 015°16'0 0.0
2018-Feb-16 17:30N 38°13' E 015°16'0 0.0
2018-Feb-16 17:00N 38°13' E 015°16'0 0.0
2018-Feb-16 16:24N 38°13' E 015°16'0 0.0
2018-Feb-16 16:00N 38°13' E 015°16'0 0.0
2018-Feb-16 15:30N 38°13' E 015°16'0 0.0
2018-Feb-16 15:00N 38°13' E 015°16'0 0.0
2018-Feb-16 14:30N 38°13' E 015°16'0 0.0
2018-Feb-16 14:00N 38°13' E 015°16'0 0.0
2018-Feb-16 13:30N 38°13' E 015°16'0 0.0
2018-Feb-16 13:00N 38°13' E 015°16'0 0.0
2018-Feb-16 12:30N 38°13' E 015°16'0 0.0
2018-Feb-16 12:00N 38°13' E 015°16'0 0.0
2018-Feb-16 11:30N 38°13' E 015°16'0 0.0
2018-Feb-16 11:00N 38°13' E 015°16'0 0.0
2018-Feb-16 10:30N 38°13' E 015°16'0 0.3
2018-Feb-16 10:00N 38°13' E 015°16'1 1.1
2018-Feb-16 09:30N 38°13' E 015°16'0 0.3
2018-Feb-16 09:00N 38°13' E 015°16'0 0.1
2018-Feb-16 08:30N 38°13' E 015°16'0 0.0
2018-Feb-16 08:00N 38°13' E 015°16'0 0.0
2018-Feb-16 07:30N 38°13' E 015°16'0 0.0
2018-Feb-16 07:00N 38°13' E 015°16'0 0.0
2018-Feb-16 06:24N 38°13' E 015°16'0 0.1
2018-Feb-16 06:00N 38°13' E 015°16'0 0.0
2018-Feb-16 05:30N 38°13' E 015°16'0 0.0
2018-Feb-16 04:54N 38°13' E 015°16'0 0.1
2018-Feb-16 04:30N 38°13' E 015°16'0 0.0
2018-Feb-16 04:00N 38°13' E 015°16'0 0.0
2018-Feb-16 03:30N 38°13' E 015°16'0 0.0
2018-Feb-16 03:00N 38°13' E 015°16'0 0.1
2018-Feb-16 02:30N 38°13' E 015°16'0 0.0
2018-Feb-16 02:00N 38°13' E 015°16'0 0.0
2018-Feb-16 01:30N 38°13' E 015°16'0 0.0
2018-Feb-16 01:00N 38°13' E 015°16'0 0.0
2018-Feb-16 00:30N 38°13' E 015°16'0 0.0
2018-Feb-16 00:00N 38°13' E 015°16'0 0.0
2018-Feb-15 23:30N 38°13' E 015°16'0 0.1
2018-Feb-15 23:00N 38°13' E 015°16'0 0.1
2018-Feb-15 22:30N 38°13' E 015°16'0 0.0
2018-Feb-15 22:00N 38°13' E 015°16'0 0.0
2018-Feb-15 21:30N 38°13' E 015°16'0 0.0
2018-Feb-15 21:00N 38°13' E 015°16'0 0.1
2018-Feb-15 20:30N 38°13' E 015°16'0 0.0
2018-Feb-15 20:00N 38°13' E 015°16'0 0.0
2018-Feb-15 19:30N 38°13' E 015°16'0 0.0
2018-Feb-15 19:00N 38°13' E 015°16'0 0.0
2018-Feb-15 18:30N 38°13' E 015°16'0 0.1
2018-Feb-15 18:00N 38°13' E 015°16'0 0.0
2018-Feb-15 17:30N 38°13' E 015°16'0 0.0
2018-Feb-15 17:00N 38°13' E 015°16'0 0.0
2018-Feb-15 16:30N 38°13' E 015°16'0 0.0
2018-Feb-15 16:00N 38°13' E 015°16'0 0.0
2018-Feb-15 15:30N 38°13' E 015°16'0 0.0
2018-Feb-15 15:00N 38°13' E 015°16'0 0.0
2018-Feb-15 14:30N 38°13' E 015°16'0 0.0
2018-Feb-15 14:00N 38°13' E 015°16'0 0.0
2018-Feb-15 13:30N 38°13' E 015°16'0 0.0
2018-Feb-15 13:00N 38°13' E 015°16'0 0.0
2018-Feb-15 12:30N 38°13' E 015°16'0 0.1
2018-Feb-15 12:00N 38°13' E 015°16'0 0.0
2018-Feb-15 11:30N 38°13' E 015°16'0 0.0
2018-Feb-15 11:00N 38°13' E 015°16'0 0.0
2018-Feb-15 10:30N 38°13' E 015°16'0 0.0
2018-Feb-15 10:00N 38°13' E 015°16'0 0.0
2018-Feb-15 09:30N 38°13' E 015°16'0 0.0
2018-Feb-15 09:00N 38°13' E 015°16'0 0.0
2018-Feb-15 08:30N 38°13' E 015°16'0 0.0
2018-Feb-15 08:00N 38°13' E 015°16'0 0.0
2018-Feb-15 07:30N 38°13' E 015°16'0 0.0
2018-Feb-15 07:00N 38°13' E 015°16'0 0.0
2018-Feb-15 06:24N 38°13' E 015°16'0 0.0
2018-Feb-15 06:00N 38°13' E 015°16'0 0.0
2018-Feb-15 05:30N 38°13' E 015°16'0 0.0
2018-Feb-15 05:00N 38°13' E 015°16'  

Dump ship's entire track history